Time;durP1;ratioP1;P1;durP2;ratioP2;P2;SDS_P1;SDS_P2;PMS_P1;PMS_P2;Temp;Humidity;BMP_temperature;BMP_pressure;BME280_temperature;BME280_humidity;BME280_pressure;Samples;Min_cycle;Max_cycle;Signal;HPM_P1;HPM_P2
2023/06/07 00:00:51;;;;;;;10.18;3.17;;;;;;;20.71;46.28;95445.06;5026436;28;20053;-80
2023/06/07 00:03:17;;;;;;;6.47;3.25;;;;;;;20.70;46.33;95457.75;5027735;28;20128;-80
2023/06/07 00:05:43;;;;;;;9.77;3.03;;;;;;;20.76;46.34;95450.25;5014019;28;20030;-80
2023/06/07 00:08:08;;;;;;;10.48;3.38;;;;;;;20.56;46.12;95424.91;5010730;28;20499;-81
2023/06/07 00:10:34;;;;;;;5.72;3.20;;;;;;;20.63;46.27;95441.34;5010630;28;20026;-81
2023/06/07 00:13:01;;;;;;;5.72;3.35;;;;;;;20.54;46.14;95432.53;5028590;28;20039;-81
2023/06/07 00:15:26;;;;;;;9.57;3.38;;;;;;;20.04;46.46;95376.84;5028316;28;20103;-80
2023/06/07 00:17:52;;;;;;;6.85;2.97;;;;;;;20.47;46.30;95418.00;5028298;28;20464;-80
2023/06/07 00:20:18;;;;;;;7.40;2.78;;;;;;;20.68;46.47;95451.91;5024044;28;20034;-80
2023/06/07 00:22:43;;;;;;;6.30;3.33;;;;;;;20.39;45.99;95417.75;5013393;28;20084;-80
2023/06/07 00:25:10;;;;;;;6.32;3.45;;;;;;;20.44;46.59;95441.03;5021617;28;20026;-81
2023/06/07 00:27:36;;;;;;;10.90;2.90;;;;;;;20.41;46.70;95422.81;5013833;28;20033;-81
2023/06/07 00:30:05;;;;;;;6.38;3.35;;;;;;;20.60;46.66;95433.09;5023953;28;20029;-81
2023/06/07 00:32:31;;;;;;;5.72;3.15;;;;;;;19.98;46.75;95334.28;5018553;28;20034;-81
2023/06/07 00:34:57;;;;;;;10.35;3.35;;;;;;;20.33;46.70;95388.63;5024953;28;20033;-81
2023/06/07 00:37:23;;;;;;;4.32;2.90;;;;;;;20.59;46.34;95429.66;5031427;28;20124;-81
2023/06/07 00:39:48;;;;;;;5.22;3.30;;;;;;;20.51;46.40;95413.56;5031515;28;20033;-81
2023/06/07 00:42:14;;;;;;;7.22;3.10;;;;;;;20.45;46.92;95421.03;5033209;28;20034;-81
2023/06/07 00:44:40;;;;;;;4.55;3.35;;;;;;;20.33;46.89;95399.41;5030267;28;20029;-81
2023/06/07 00:47:06;;;;;;;11.05;3.60;;;;;;;20.57;46.80;95433.78;5030947;28;20459;-81
2023/06/07 00:49:32;;;;;;;8.00;3.20;;;;;;;19.95;46.78;95341.09;5029876;28;20040;-81
2023/06/07 00:51:58;;;;;;;7.40;2.80;;;;;;;20.00;46.98;95343.59;5015499;28;20038;-81
2023/06/07 00:54:23;;;;;;;7.53;2.83;;;;;;;20.49;46.77;95423.88;5013472;28;20067;-81
2023/06/07 00:56:50;;;;;;;9.32;3.25;;;;;;;20.49;46.90;95438.13;5030357;28;20428;-81
2023/06/07 00:59:20;;;;;;;18.02;3.38;;;;;;;20.34;47.24;95428.75;5026769;28;20026;-81
2023/06/07 01:01:51;;;;;;;8.90;3.57;;;;;;;20.31;47.28;95432.06;5023274;28;20033;-81
2023/06/07 01:04:19;;;;;;;8.82;2.97;;;;;;;20.31;47.18;95433.94;5043772;28;20489;-81
2023/06/07 01:06:45;;;;;;;7.57;3.17;;;;;;;20.33;46.90;95437.13;5046393;28;20471;-81
2023/06/07 01:09:13;;;;;;;6.38;3.28;;;;;;;20.02;47.00;95407.88;5042148;28;20041;-81
2023/06/07 01:11:42;;;;;;;6.05;2.67;;;;;;;20.24;46.57;95436.38;5030665;28;20029;-81
2023/06/07 01:14:10;;;;;;;3.60;2.38;;;;;;;19.94;46.45;95408.72;5052378;28;20511;-81
2023/06/07 01:16:37;;;;;;;5.57;3.10;;;;;;;20.13;46.25;95438.69;5032213;28;20052;-81
2023/06/07 01:19:04;;;;;;;6.15;3.40;;;;;;;20.09;46.35;95439.66;5017563;28;20037;-81
2023/06/07 01:21:33;;;;;;;4.30;2.65;;;;;;;19.86;46.58;95417.63;5032290;28;20109;-81
2023/06/07 01:23:59;;;;;;;6.32;2.60;;;;;;;19.71;46.44;95400.16;5015196;28;20048;-81
2023/06/07 01:26:27;;;;;;;11.18;3.15;;;;;;;19.65;46.36;95401.47;5032184;28;20496;-81
2023/06/07 01:28:54;;;;;;;6.60;2.97;;;;;;;19.37;46.21;95350.00;5014232;28;20491;-81
2023/06/07 01:31:22;;;;;;;6.85;3.00;;;;;;;19.55;46.66;95396.44;5023102;28;20060;-81
2023/06/07 01:33:49;;;;;;;7.75;2.97;;;;;;;19.59;46.62;95419.69;5052117;28;20032;-81
2023/06/07 01:36:15;;;;;;;10.85;3.10;;;;;;;19.58;46.66;95428.09;5034243;28;20285;-81
2023/06/07 01:38:44;;;;;;;7.13;3.10;;;;;;;19.47;46.43;95414.19;5017651;28;20037;-81
2023/06/07 01:41:11;;;;;;;6.15;3.30;;;;;;;19.44;46.33;95416.72;5031684;28;20033;-81
2023/06/07 01:43:37;;;;;;;13.38;3.10;;;;;;;19.52;46.74;95422.09;5021998;28;20064;-81
2023/06/07 01:46:05;;;;;;;5.63;2.60;;;;;;;19.32;46.54;95390.50;5034093;28;20032;-80
2023/06/07 01:48:30;;;;;;;9.02;2.80;;;;;;;19.25;46.46;95376.78;5048431;28;20500;-81
2023/06/07 01:50:55;;;;;;;7.00;2.70;;;;;;;19.23;46.65;95382.47;5029269;28;20040;-81
2023/06/07 01:53:21;;;;;;;4.20;2.65;;;;;;;19.29;46.38;95372.34;5021847;28;20033;-81
2023/06/07 01:56:08;;;;;;;8.65;3.38;;;;;;;19.42;46.06;95389.38;5033145;28;20035;-81
2023/06/07 01:58:40;;;;;;;7.63;2.47;;;;;;;19.60;46.11;95412.41;5048274;28;20029;-81
2023/06/07 02:01:26;;;;;;;6.47;2.80;;;;;;;19.53;45.89;95393.31;5051209;28;20411;-80
2023/06/07 02:03:54;;;;;;;17.90;2.90;;;;;;;19.02;45.71;95314.41;5033078;28;20049;-81
2023/06/07 02:06:33;;;;;;;5.90;2.85;;;;;;;19.47;45.99;95399.97;5051302;28;20041;-81
2023/06/07 02:09:07;;;;;;;5.55;2.65;;;;;;;19.54;46.02;95417.16;5015385;28;20036;-81
2023/06/07 02:11:34;;;;;;;10.43;2.95;;;;;;;19.40;46.27;95413.88;5032511;28;20063;-80
2023/06/07 02:14:00;;;;;;;7.82;3.03;;;;;;;19.40;45.92;95438.09;5050338;28;20510;-81
2023/06/07 02:16:32;;;;;;;6.07;3.00;;;;;;;19.41;46.39;95428.13;5032637;28;20030;-80
2023/06/07 02:18:58;;;;;;;6.03;3.10;;;;;;;19.29;46.15;95393.88;5033026;28;20499;-80
2023/06/07 02:21:24;;;;;;;7.22;3.05;;;;;;;19.44;46.04;95409.47;5032566;28;20098;-80
2023/06/07 02:23:50;;;;;;;8.43;3.25;;;;;;;19.51;46.21;95422.44;5026990;28;20033;-80
2023/06/07 02:26:16;;;;;;;6.57;3.05;;;;;;;19.38;45.94;95396.50;5019410;28;20084;-80
2023/06/07 02:28:41;;;;;;;6.32;2.80;;;;;;;19.53;45.89;95426.34;5027341;28;20029;-80
2023/06/07 02:31:07;;;;;;;6.00;3.00;;;;;;;19.33;45.96;95388.63;5050299;28;20043;-80
2023/06/07 02:33:32;;;;;;;10.50;3.00;;;;;;;19.41;45.93;95415.47;5050576;28;20063;-80
2023/06/07 02:35:58;;;;;;;9.70;3.47;;;;;;;19.30;46.29;95398.09;5031939;28;20114;-80
2023/06/07 02:38:23;;;;;;;8.27;3.17;;;;;;;19.44;46.36;95425.59;5032531;28;20465;-80
2023/06/07 02:40:49;;;;;;;13.02;2.83;;;;;;;19.26;46.45;95424.06;5018727;28;20135;-80
2023/06/07 02:43:14;;;;;;;9.40;3.10;;;;;;;19.13;46.86;95398.19;5027090;28;20134;-80
2023/06/07 02:45:40;;;;;;;6.18;2.70;;;;;;;19.34;46.81;95436.69;5045693;28;20037;-80
2023/06/07 02:48:06;;;;;;;14.27;3.72;;;;;;;19.27;46.60;95418.38;5047471;28;20033;-80
2023/06/07 02:50:31;;;;;;;7.05;2.78;;;;;;;18.96;46.69;95366.78;5013784;28;20032;-80
2023/06/07 02:52:57;;;;;;;8.27;3.55;;;;;;;19.34;46.57;95425.94;5031099;28;20033;-80
2023/06/07 02:55:23;;;;;;;6.22;2.78;;;;;;;19.02;46.58;95378.13;5029631;28;20411;-80
2023/06/07 02:57:48;;;;;;;6.57;2.72;;;;;;;19.35;46.52;95422.16;5021075;28;20025;-80
2023/06/07 03:00:14;;;;;;;10.25;2.42;;;;;;;18.80;46.79;95354.97;5025987;28;20036;-80
2023/06/07 03:02:41;;;;;;;4.93;3.03;;;;;;;19.23;47.05;95427.41;5026022;28;20051;-80
2023/06/07 03:05:07;;;;;;;8.38;2.85;;;;;;;19.13;47.04;95411.63;5028596;28;20552;-80
2023/06/07 03:07:35;;;;;;;4.90;2.63;;;;;;;19.30;46.93;95424.22;5050238;28;20040;-80
2023/06/07 03:10:01;;;;;;;9.57;3.60;;;;;;;19.18;47.05;95406.88;5031969;28;20040;-80
2023/06/07 03:12:26;;;;;;;7.63;2.92;;;;;;;19.01;47.21;95398.06;5037874;28;20040;-80
2023/06/07 03:14:52;;;;;;;7.55;2.92;;;;;;;19.22;46.96;95415.09;5029944;28;20041;-80
2023/06/07 03:17:17;;;;;;;10.52;3.00;;;;;;;18.88;47.17;95397.94;5026074;28;20032;-81
2023/06/07 03:19:43;;;;;;;14.82;2.92;;;;;;;19.03;47.06;95412.75;5032160;28;20123;-81
2023/06/07 03:22:09;;;;;;;4.57;2.72;;;;;;;18.95;47.08;95392.06;5049219;28;20033;-81
2023/06/07 03:24:36;;;;;;;7.25;2.78;;;;;;;19.15;47.16;95423.63;5032006;28;20067;-81
2023/06/07 03:27:03;;;;;;;8.18;2.75;;;;;;;19.14;47.13;95408.63;5049812;28;20037;-81
2023/06/07 03:29:30;;;;;;;6.18;2.78;;;;;;;19.08;46.98;95392.97;5038230;28;20028;-81
2023/06/07 03:31:55;;;;;;;11.90;3.30;;;;;;;18.96;47.35;95376.75;5048022;28;20029;-81
2023/06/07 03:34:21;;;;;;;10.20;3.50;;;;;;;19.05;47.41;95388.25;5022898;28;20040;-81
2023/06/07 03:36:47;;;;;;;11.88;3.78;;;;;;;19.28;47.26;95425.34;5031322;28;20033;-81
2023/06/07 03:39:13;;;;;;;9.20;2.50;;;;;;;18.98;47.02;95377.22;5049661;28;20036;-81
2023/06/07 03:41:38;;;;;;;8.25;3.40;;;;;;;19.14;47.28;95415.91;5049969;28;20522;-80
2023/06/07 03:44:04;;;;;;;5.85;2.85;;;;;;;19.06;47.55;95404.06;5031117;28;20052;-81
2023/06/07 03:46:30;;;;;;;12.63;3.97;;;;;;;19.07;47.50;95397.56;5031566;28;20029;-81
2023/06/07 03:48:55;;;;;;;13.43;3.33;;;;;;;19.09;47.50;95397.25;5049444;28;20036;-81
2023/06/07 03:51:21;;;;;;;9.65;3.33;;;;;;;19.24;47.60;95420.91;5049409;28;20032;-80
2023/06/07 03:53:46;;;;;;;6.35;2.92;;;;;;;18.91;47.73;95379.63;5030627;28;20507;-81
2023/06/07 03:56:12;;;;;;;10.32;2.78;;;;;;;18.94;47.92;95379.75;5031284;28;20040;-81
2023/06/07 03:58:37;;;;;;;10.18;3.92;;;;;;;18.76;48.28;95359.44;5030773;28;20037;-81
2023/06/07 04:01:03;;;;;;;8.57;3.08;;;;;;;19.14;48.22;95411.31;5045960;28;20319;-81
2023/06/07 04:03:30;;;;;;;8.05;2.92;;;;;;;18.93;48.08;95380.06;5017278;28;20045;-81
2023/06/07 04:05:55;;;;;;;6.22;3.08;;;;;;;19.07;48.34;95396.78;5050547;28;20135;-81
2023/06/07 04:08:22;;;;;;;9.35;3.38;;;;;;;19.07;48.58;95386.81;5031532;28;20116;-82
2023/06/07 04:10:48;;;;;;;8.30;3.28;;;;;;;19.21;48.73;95418.88;5048214;28;20118;-81
2023/06/07 04:13:14;;;;;;;11.20;3.35;;;;;;;19.28;48.58;95422.66;5028887;28;20534;-81
2023/06/07 04:15:40;;;;;;;10.23;3.38;;;;;;;19.04;48.67;95375.94;5032895;28;20174;-81
2023/06/07 04:18:08;;;;;;;14.95;3.88;;;;;;;19.27;48.97;95417.59;5021372;28;20124;-81
2023/06/07 04:20:33;;;;;;;9.18;3.35;;;;;;;18.87;48.87;95348.00;5024298;28;20335;-81
2023/06/07 04:23:00;;;;;;;11.73;3.25;;;;;;;19.07;48.92;95372.59;5039681;28;20036;-81
2023/06/07 04:25:31;;;;;;;14.73;3.20;;;;;;;18.81;48.64;95316.25;5017149;28;20116;-82
2023/06/07 04:27:59;;;;;;;14.75;3.78;;;;;;;19.49;48.72;95421.94;5045234;28;20061;-81
2023/06/07 04:30:34;;;;;;;11.70;4.15;;;;;;;19.58;48.67;95425.41;5040850;28;20025;-81
2023/06/07 04:33:03;;;;;;;10.60;3.15;;;;;;;19.60;48.54;95420.50;5026121;28;20048;-81
2023/06/07 04:35:31;;;;;;;18.92;4.35;;;;;;;19.44;48.63;95401.38;5026219;28;20518;-81
2023/06/07 04:37:57;;;;;;;7.13;3.05;;;;;;;19.04;48.55;95332.91;5018997;28;20095;-81
2023/06/07 04:40:23;;;;;;;11.93;2.97;;;;;;;19.72;48.35;95422.47;4998824;28;20115;-81
2023/06/07 04:43:08;;;;;;;6.28;2.50;;;;;;;19.46;48.44;95376.84;5021292;28;20041;-81
2023/06/07 04:45:36;;;;;;;4.25;2.63;;;;;;;19.79;48.26;95417.38;5023166;28;20060;-81
2023/06/07 04:48:04;;;;;;;9.98;3.53;;;;;;;19.63;48.13;95393.72;5005425;28;20041;-82
2023/06/07 04:50:30;;;;;;;14.23;2.97;;;;;;;19.77;48.17;95393.47;5021026;28;20487;-82
2023/06/07 04:53:02;;;;;;;11.20;3.47;;;;;;;19.80;48.03;95382.06;5041763;28;20033;-82
2023/06/07 04:55:34;;;;;;;7.70;2.47;;;;;;;19.73;48.28;95367.53;5035491;28;20059;-82
2023/06/07 04:58:03;;;;;;;12.25;3.38;;;;;;;20.03;48.29;95414.84;5042761;28;20033;-82
2023/06/07 05:00:30;;;;;;;11.40;3.38;;;;;;;20.10;48.18;95420.50;5023136;28;20033;-82
2023/06/07 05:02:56;;;;;;;12.20;3.35;;;;;;;20.19;47.97;95423.91;5035599;28;20129;-82
2023/06/07 05:05:22;;;;;;;5.10;3.03;;;;;;;19.98;47.97;95383.53;5017398;28;20116;-82
2023/06/07 05:07:49;;;;;;;13.70;3.60;;;;;;;20.18;48.02;95405.38;5017273;28;20036;-81
2023/06/07 05:10:16;;;;;;;14.23;3.35;;;;;;;20.24;48.39;95406.75;5013429;28;20055;-83
2023/06/07 05:12:41;;;;;;;11.10;4.18;;;;;;;20.07;48.39;95361.91;5029349;28;20029;-82
2023/06/07 05:15:07;;;;;;;8.93;3.15;;;;;;;20.30;48.14;95406.22;5015253;28;20495;-82
2023/06/07 05:17:34;;;;;;;10.35;3.20;;;;;;;20.50;48.06;95420.84;5035701;28;20843;-83
2023/06/07 05:19:59;;;;;;;7.78;2.90;;;;;;;20.28;47.99;95389.63;5039906;28;20127;-83
2023/06/07 05:22:25;;;;;;;9.18;2.97;;;;;;;20.25;47.70;95384.91;5013385;28;20227;-83
2023/06/07 05:24:50;;;;;;;11.80;3.50;;;;;;;20.65;47.74;95431.03;5019212;28;20025;-82
2023/06/07 05:27:17;;;;;;;11.10;3.40;;;;;;;20.54;48.06;95413.66;5017193;28;20033;-83
2023/06/07 05:29:43;;;;;;;8.00;2.85;;;;;;;20.51;47.88;95406.28;5032006;28;20038;-82
2023/06/07 05:32:09;;;;;;;9.57;3.20;;;;;;;20.26;48.17;95361.44;5026644;28;20087;-84
2023/06/07 05:34:35;;;;;;;11.40;3.40;;;;;;;20.69;48.27;95425.75;5020409;28;20312;-84
2023/06/07 05:37:02;;;;;;;8.27;3.28;;;;;;;20.28;47.45;95348.44;5047252;28;20135;-84
2023/06/07 05:39:27;;;;;;;12.85;3.78;;;;;;;20.71;47.51;95393.88;5025060;28;20040;-83
2023/06/07 05:41:53;;;;;;;6.80;3.22;;;;;;;20.79;47.50;95403.78;5021275;28;20040;-82
2023/06/07 05:44:18;;;;;;;14.88;3.50;;;;;;;21.01;47.48;95437.66;5028093;28;20033;-83
2023/06/07 05:46:43;;;;;;;23.52;4.63;;;;;;;21.09;47.01;95423.28;5033392;28;20064;-84
2023/06/07 05:49:09;;;;;;;35.95;9.10;;;;;;;20.37;46.56;95311.47;5034773;28;20115;-84
2023/06/07 05:51:35;;;;;;;10.90;3.70;;;;;;;20.65;46.59;95344.78;5036717;28;20037;-84
2023/06/07 05:54:01;;;;;;;8.77;3.17;;;;;;;20.83;45.67;95364.25;5043400;28;20032;-88
2023/06/07 05:56:27;;;;;;;13.73;3.38;;;;;;;21.34;45.54;95427.63;5025381;28;20098;-84
2023/06/07 05:58:53;;;;;;;9.85;3.42;;;;;;;21.32;45.22;95415.59;5020489;28;20515;-85
2023/06/07 06:01:18;;;;;;;10.90;3.38;;;;;;;21.18;45.62;95383.56;5015630;28;20171;-81
2023/06/07 06:03:44;;;;;;;10.23;3.75;;;;;;;21.46;45.99;95397.97;5007960;28;20056;-81
2023/06/07 06:06:15;;;;;;;8.40;3.22;;;;;;;21.63;46.15;95420.47;5008533;28;20033;-81
2023/06/07 06:08:40;;;;;;;10.73;3.73;;;;;;;21.61;46.06;95403.81;5009585;28;20563;-81
2023/06/07 06:11:05;;;;;;;13.88;3.80;;;;;;;21.77;46.11;95429.00;5024960;28;20141;-82
2023/06/07 06:13:32;;;;;;;9.48;3.55;;;;;;;21.72;46.34;95404.94;5029156;28;20036;-82
2023/06/07 06:15:58;;;;;;;12.43;3.22;;;;;;;21.59;45.59;95365.59;5033722;28;20346;-83
2023/06/07 06:18:24;;;;;;;9.10;3.38;;;;;;;21.68;45.62;95369.72;5032281;28;20460;-83
2023/06/07 06:20:49;;;;;;;11.52;3.53;;;;;;;21.95;45.31;95398.72;5015432;28;20143;-84
2023/06/07 06:23:15;;;;;;;13.18;3.40;;;;;;;21.86;45.74;95379.16;5014546;28;20069;-82
2023/06/07 06:25:40;;;;;;;7.07;2.90;;;;;;;21.97;45.29;95390.28;5012813;28;20550;-83
2023/06/07 06:28:06;;;;;;;11.63;3.85;;;;;;;22.07;45.11;95395.25;5011117;28;20041;-83
2023/06/07 06:30:31;;;;;;;9.98;3.40;;;;;;;22.02;44.97;95379.28;5034620;28;20036;-82
2023/06/07 06:32:57;;;;;;;13.20;3.33;;;;;;;22.24;45.50;95422.00;5011425;28;20045;-87
2023/06/07 06:35:22;;;;;;;12.27;3.22;;;;;;;22.00;45.74;95386.94;5013244;28;20033;-82
2023/06/07 06:37:48;;;;;;;10.88;4.13;;;;;;;21.83;45.02;95371.72;5011575;28;20036;-84
2023/06/07 06:40:13;;;;;;;13.68;3.63;;;;;;;22.05;44.53;95378.59;5011034;28;20061;-83
2023/06/07 06:42:39;;;;;;;4.72;2.75;;;;;;;22.21;45.70;95398.34;5015709;28;20131;-83
2023/06/07 06:45:06;;;;;;;8.63;3.28;;;;;;;22.09;45.96;95365.97;5030995;28;20033;-82
2023/06/07 06:47:32;;;;;;;10.00;3.25;;;;;;;22.50;44.80;95423.50;5033095;28;20171;-83
2023/06/07 06:49:59;;;;;;;9.27;3.13;;;;;;;21.99;45.38;95350.25;5015141;28;20124;-83
2023/06/07 06:52:25;;;;;;;8.88;4.07;;;;;;;22.41;45.36;95404.72;5029062;28;20040;-82
2023/06/07 06:54:50;;;;;;;9.70;3.58;;;;;;;22.12;45.68;95373.41;5012636;28;20040;-84
2023/06/07 06:57:16;;;;;;;7.88;3.35;;;;;;;21.97;45.63;95322.03;5031567;28;20041;-84
2023/06/07 06:59:41;;;;;;;12.95;3.30;;;;;;;22.60;45.67;95418.38;5013508;28;20037;-84
2023/06/07 07:02:07;;;;;;;8.93;3.08;;;;;;;21.06;45.79;95163.19;5016288;28;20037;-84
2023/06/07 07:04:32;;;;;;;13.10;3.50;;;;;;;22.71;45.47;95395.16;5012135;28;20052;-84
2023/06/07 07:06:58;;;;;;;10.80;3.70;;;;;;;22.61;45.19;95375.94;5012699;28;20028;-83
2023/06/07 07:09:23;;;;;;;15.10;3.20;;;;;;;22.90;45.41;95409.94;5018608;28;20045;-82
2023/06/07 07:11:49;;;;;;;8.82;3.30;;;;;;;22.54;44.56;95354.13;5013570;28;20037;-83
2023/06/07 07:14:14;;;;;;;8.40;2.70;;;;;;;22.84;44.47;95390.50;5005997;28;20061;-83
2023/06/07 07:16:40;;;;;;;17.35;3.60;;;;;;;22.88;43.76;95412.22;5018994;28;20518;-83
2023/06/07 07:19:05;;;;;;;12.82;3.42;;;;;;;22.70;44.58;95368.44;5017770;28;20055;-83
2023/06/07 07:21:30;;;;;;;9.93;3.40;;;;;;;23.02;45.21;95410.69;5013007;28;20044;-83
2023/06/07 07:23:56;;;;;;;10.30;3.33;;;;;;;22.78;44.77;95362.13;5033618;28;20179;-83
2023/06/07 07:26:22;;;;;;;6.95;2.85;;;;;;;23.07;43.61;95390.69;5036350;28;20033;-83
2023/06/07 07:28:47;;;;;;;6.95;3.08;;;;;;;23.25;43.99;95405.47;5030970;28;20044;-83
2023/06/07 07:31:13;;;;;;;11.20;3.80;;;;;;;23.04;43.74;95370.53;5030680;28;20527;-85
2023/06/07 07:33:39;;;;;;;8.45;3.15;;;;;;;23.21;44.23;95380.22;5018790;28;20032;-86
2023/06/07 07:36:05;;;;;;;9.82;3.50;;;;;;;23.14;43.95;95361.13;5037243;28;20043;-86
2023/06/07 07:38:32;;;;;;;9.52;2.85;;;;;;;23.16;44.31;95385.13;5014688;28;20454;-85
2023/06/07 07:40:59;;;;;;;6.18;3.30;;;;;;;22.82;43.84;95365.72;5027715;28;20320;-85
2023/06/07 07:43:24;;;;;;;11.48;3.83;;;;;;;23.16;43.65;95391.31;5025540;28;20530;-85
2023/06/07 07:45:50;;;;;;;11.10;3.05;;;;;;;23.03;44.22;95360.88;5041275;28;20048;-85
2023/06/07 07:48:15;;;;;;;7.93;3.20;;;;;;;23.09;43.98;95362.19;5022536;28;20029;-82
2023/06/07 07:50:40;;;;;;;7.10;3.20;;;;;;;23.32;44.90;95383.22;5020494;28;20551;-83
2023/06/07 07:53:06;;;;;;;16.98;3.65;;;;;;;23.16;45.02;95336.44;5016013;28;20063;-83
2023/06/07 07:55:32;;;;;;;10.02;3.20;;;;;;;23.42;45.18;95356.41;5023116;28;20047;-83
2023/06/07 07:57:59;;;;;;;6.05;2.97;;;;;;;23.77;44.32;95390.88;5021643;28;20029;-84
2023/06/07 08:00:24;;;;;;;8.27;3.55;;;;;;;23.64;43.23;95387.50;5021677;28;20069;-83
2023/06/07 08:02:50;;;;;;;6.45;3.10;;;;;;;23.78;43.51;95385.13;5022244;28;20228;-84
2023/06/07 08:05:16;;;;;;;6.90;2.90;;;;;;;24.12;43.54;95404.44;5019626;28;20121;-84
2023/06/07 08:07:41;;;;;;;12.05;3.00;;;;;;;24.08;43.65;95409.78;5023931;28;20191;-83
2023/06/07 08:10:08;;;;;;;15.23;4.22;;;;;;;23.93;43.09;95367.28;5022821;28;20037;-83
2023/06/07 08:12:34;;;;;;;9.65;4.03;;;;;;;24.04;42.20;95372.91;5050423;28;20491;-85
2023/06/07 08:14:59;;;;;;;9.55;3.88;;;;;;;24.47;41.71;95404.44;5031040;28;20103;-84
2023/06/07 08:17:25;;;;;;;11.95;3.60;;;;;;;23.95;42.66;95337.13;5024861;28;20063;-85
2023/06/07 08:19:51;;;;;;;11.07;3.20;;;;;;;24.29;42.57;95371.53;5041716;28;20577;-81
2023/06/07 08:22:16;;;;;;;11.93;3.60;;;;;;;24.15;42.38;95333.28;5024158;28;20445;-85
2023/06/07 08:24:42;;;;;;;10.82;3.63;;;;;;;24.29;41.15;95341.72;5030939;28;20170;-86
2023/06/07 08:27:07;;;;;;;18.52;4.47;;;;;;;24.81;40.78;95400.84;5041675;28;20032;-86
2023/06/07 08:29:33;;;;;;;9.80;3.55;;;;;;;24.81;41.10;95387.28;5026531;28;20090;-86
2023/06/07 08:31:58;;;;;;;7.72;4.28;;;;;;;24.83;42.12;95393.16;5023169;28;20047;-86
2023/06/07 08:34:30;;;;;;;6.55;3.40;;;;;;;24.56;41.45;95346.13;5027702;28;20119;-87
2023/06/07 08:36:55;;;;;;;6.00;2.78;;;;;;;24.34;41.15;95281.03;5044287;28;20448;-86
2023/06/07 08:39:21;;;;;;;10.60;5.10;;;;;;;24.85;41.96;95344.75;5031421;28;20128;-86
2023/06/07 08:41:47;;;;;;;10.77;4.18;;;;;;;24.82;41.64;95333.84;5025775;28;20048;-85
2023/06/07 08:44:13;;;;;;;10.05;3.83;;;;;;;25.48;41.73;95408.69;5021007;28;20029;-86
2023/06/07 08:46:39;;;;;;;7.60;3.78;;;;;;;25.14;41.80;95367.78;5006279;28;20052;-87
2023/06/07 08:49:05;;;;;;;12.70;4.97;;;;;;;25.30;40.40;95370.38;5026929;28;20474;-83
2023/06/07 08:51:36;;;;;;;5.78;3.22;;;;;;;25.36;40.13;95364.28;5015733;28;20044;-84
2023/06/07 08:54:03;;;;;;;15.05;4.13;;;;;;;25.27;40.91;95339.28;5035878;28;20043;-83
2023/06/07 08:56:31;;;;;;;8.45;3.50;;;;;;;25.81;39.95;95405.34;5021543;28;20389;-83
2023/06/07 08:58:57;;;;;;;8.52;3.30;;;;;;;25.62;39.64;95362.78;5020073;28;20079;-82
2023/06/07 09:01:23;;;;;;;8.43;3.00;;;;;;;25.64;40.60;95350.38;5046397;28;20033;-83
2023/06/07 09:03:52;;;;;;;11.77;3.70;;;;;;;25.83;40.21;95368.53;5023978;28;20114;-83
2023/06/07 09:06:18;;;;;;;13.00;4.82;;;;;;;25.72;38.97;95332.25;5039306;28;20508;-83
2023/06/07 09:08:44;;;;;;;8.85;3.15;;;;;;;25.61;39.64;95326.69;5040512;28;20029;-84
2023/06/07 09:11:09;;;;;;;10.50;2.92;;;;;;;26.01;40.54;95401.38;5040589;28;20112;-83
2023/06/07 09:13:36;;;;;;;9.43;3.22;;;;;;;25.94;40.40;95376.84;5021065;28;20052;-83
2023/06/07 09:16:02;;;;;;;9.32;2.90;;;;;;;25.80;40.31;95339.34;5017937;28;20491;-82
2023/06/07 09:18:54;;;;;;;7.93;3.08;;;;;;;25.92;39.96;95362.81;5037675;28;20044;-83
2023/06/07 09:21:23;;;;;;;14.77;4.43;;;;;;;26.03;39.46;95399.84;5031163;28;20087;-84
2023/06/07 09:23:50;;;;;;;6.78;3.53;;;;;;;26.16;39.37;95377.91;5045653;28;20421;-85
2023/06/07 09:26:16;;;;;;;10.00;3.50;;;;;;;26.18;40.86;95387.25;5020801;28;20281;-82
2023/06/07 09:28:42;;;;;;;8.38;2.83;;;;;;;25.82;39.58;95301.75;5016131;28;20467;-83
2023/06/07 09:31:08;;;;;;;9.30;3.17;;;;;;;26.24;39.94;95357.81;5015084;28;20051;-82
2023/06/07 09:33:34;;;;;;;5.20;2.92;;;;;;;26.43;39.85;95382.94;5017335;28;20034;-83
2023/06/07 09:36:13;;;;;;;10.15;3.47;;;;;;;26.66;38.35;95390.22;5029748;28;20038;-85
2023/06/07 09:38:39;;;;;;;16.60;3.85;;;;;;;26.55;38.15;95368.31;5013293;28;20029;-83
2023/06/07 09:41:06;;;;;;;7.43;2.75;;;;;;;26.56;38.92;95372.59;5042113;28;20062;-84
2023/06/07 09:43:50;;;;;;;7.15;3.17;;;;;;;26.98;37.91;95382.44;5039573;28;20127;-83
2023/06/07 09:46:19;;;;;;;7.47;3.05;;;;;;;26.76;37.96;95381.41;5023315;28;20584;-83
2023/06/07 09:48:53;;;;;;;6.05;2.83;;;;;;;26.43;38.56;95311.47;5038291;28;20180;-83
2023/06/07 09:51:20;;;;;;;7.95;3.10;;;;;;;26.84;38.51;95320.47;5021186;28;20048;-85
2023/06/07 09:54:05;;;;;;;6.20;2.95;;;;;;;27.19;37.02;95371.75;5029355;28;20043;-84
2023/06/07 09:56:31;;;;;;;7.43;3.22;;;;;;;27.36;36.56;95362.97;5021762;28;20037;-85
2023/06/07 09:59:06;;;;;;;7.50;3.17;;;;;;;27.47;38.02;95368.50;5021292;28;20107;-83
2023/06/07 10:01:34;;;;;;;10.85;3.20;;;;;;;27.54;38.12;95377.53;5022161;28;20044;-81
2023/06/07 10:04:01;;;;;;;12.68;3.53;;;;;;;27.18;37.89;95313.81;5022028;28;20708;-84
2023/06/07 10:06:32;;;;;;;6.88;3.05;;;;;;;26.98;37.53;95287.97;5027564;28;20040;-84
2023/06/07 10:09:04;;;;;;;15.80;3.65;;;;;;;27.77;37.46;95374.59;5024649;28;20030;-88
2023/06/07 10:11:32;;;;;;;9.55;3.60;;;;;;;26.16;37.38;95109.63;5028961;28;20041;-86
2023/06/07 10:14:04;;;;;;;8.40;3.00;;;;;;;25.87;37.87;95102.31;5026168;28;20034;-87
2023/06/07 10:16:33;;;;;;;11.68;3.05;;;;;;;27.22;36.86;95276.50;5016948;28;20033;-84
2023/06/07 10:19:07;;;;;;;18.58;3.15;;;;;;;27.85;37.21;95348.16;5022933;28;20101;-83
2023/06/07 10:21:34;;;;;;;8.75;3.45;;;;;;;27.89;37.13;95343.53;5014875;28;20702;-81
2023/06/07 10:24:07;;;;;;;9.35;3.13;;;;;;;28.03;36.60;95366.22;5015604;28;20037;-83
2023/06/07 10:26:52;;;;;;;11.45;3.63;;;;;;;28.03;36.75;95349.06;5019712;28;20101;-84
2023/06/07 10:29:28;;;;;;;7.97;3.25;;;;;;;28.24;35.46;95356.59;5023090;28;20562;-84
2023/06/07 10:32:04;;;;;;;6.38;3.17;;;;;;;27.79;35.80;95295.19;5034355;28;20056;-85
2023/06/07 10:34:31;;;;;;;5.93;3.25;;;;;;;28.02;35.27;95321.03;5017598;28;20049;-84
2023/06/07 10:36:58;;;;;;;5.45;2.72;;;;;;;27.92;35.89;95307.34;5015369;28;20037;-82
2023/06/07 10:39:24;;;;;;;6.43;3.33;;;;;;;27.78;36.39;95293.63;5014111;28;20087;-83
2023/06/07 10:41:50;;;;;;;9.63;3.50;;;;;;;28.16;36.37;95353.06;5015891;28;20091;-81
2023/06/07 10:44:16;;;;;;;6.03;3.40;;;;;;;28.11;35.25;95350.66;5017356;28;20033;-84
2023/06/07 10:46:41;;;;;;;6.55;3.15;;;;;;;27.73;35.20;95283.88;5016878;28;20067;-85
2023/06/07 10:49:31;;;;;;;5.70;3.25;;;;;;;27.70;35.61;95283.84;5016391;28;20025;-84
2023/06/07 10:52:04;;;;;;;6.03;3.47;;;;;;;27.93;35.66;95300.72;5016668;28;20064;-85
2023/06/07 10:54:32;;;;;;;9.65;3.28;;;;;;;27.62;35.57;95242.16;5018872;28;20048;-85
2023/06/07 10:56:59;;;;;;;10.48;3.42;;;;;;;28.45;35.69;95355.94;5015289;28;20322;-83
2023/06/07 10:59:25;;;;;;;7.05;3.63;;;;;;;28.51;34.92;95332.56;5019386;28;20190;-83
2023/06/07 11:01:54;;;;;;;8.35;4.30;;;;;;;28.54;34.95;95351.66;5022757;28;20148;-82
2023/06/07 11:04:53;;;;;;;6.95;3.22;;;;;;;28.35;35.21;95311.88;5019983;28;20444;-81
2023/06/07 11:07:30;;;;;;;8.50;3.55;;;;;;;28.56;35.87;95340.38;5004087;28;20057;-83
2023/06/07 11:10:04;;;;;;;6.78;3.65;;;;;;;28.52;36.27;95345.06;5011922;28;20087;-84
2023/06/07 11:12:36;;;;;;;7.45;3.15;;;;;;;28.40;36.45;95336.03;5018069;28;20338;-84
2023/06/07 11:15:16;;;;;;;9.65;3.20;;;;;;;28.64;35.38;95339.25;5014690;28;20223;-84
2023/06/07 11:17:53;;;;;;;10.95;3.55;;;;;;;28.50;35.08;95328.28;5017159;28;20048;-84
2023/06/07 11:20:37;;;;;;;7.63;4.70;;;;;;;28.60;35.53;95311.94;5016641;28;20041;-85
2023/06/07 11:23:24;;;;;;;9.65;3.55;;;;;;;28.79;35.85;95329.94;5033123;28;20335;-86
2023/06/07 11:26:05;;;;;;;5.97;2.92;;;;;;;28.92;35.21;95325.69;5014662;28;21007;-85
2023/06/07 11:28:33;;;;;;;5.50;3.08;;;;;;;28.74;35.02;95298.34;5013705;28;20082;-85
2023/06/07 11:31:00;;;;;;;10.25;2.88;;;;;;;28.37;35.77;95259.66;5013906;28;20034;-82